createdAt,value
2017-04-19T00:00:21.747Z,56.02
2017-04-19T00:01:02.347Z,56.4
2017-04-19T00:01:42.993Z,56.4
2017-04-19T00:02:23.594Z,56.59
2017-04-19T00:03:04.190Z,56.4
2017-04-19T00:03:44.790Z,56.21
2017-04-19T00:04:25.396Z,55.64
2017-04-19T00:05:05.983Z,56.3
2017-04-19T00:05:46.548Z,56.21
2017-04-19T00:06:27.148Z,56.4
2017-04-19T00:07:07.721Z,56.4
2017-04-19T00:07:48.315Z,56.68
2017-04-19T00:08:28.928Z,56.4
2017-04-19T00:09:09.511Z,56.97
2017-04-19T00:09:50.097Z,56.97
2017-04-19T00:10:30.680Z,57.25
2017-04-19T00:11:11.265Z,57.16
2017-04-19T00:11:51.889Z,56.97
2017-04-19T00:12:32.484Z,56.78
2017-04-19T00:13:13.075Z,56.78
2017-04-19T00:13:53.704Z,56.68
2017-04-19T00:14:34.326Z,57.06
2017-04-19T00:15:14.900Z,56.78
2017-04-19T00:15:55.490Z,56.4
2017-04-19T00:16:36.091Z,56.59
2017-04-19T00:17:16.654Z,56.59
2017-04-19T00:17:57.256Z,56.49
2017-04-19T00:18:37.866Z,56.68
2017-04-19T00:19:18.476Z,56.97
2017-04-19T00:19:59.068Z,57.25
2017-04-19T00:20:39.656Z,57.06
2017-04-19T00:21:20.232Z,56.78
2017-04-19T00:22:00.822Z,57.06
2017-04-19T00:22:41.414Z,57.06
2017-04-19T00:23:22.031Z,56.87
2017-04-19T00:24:02.653Z,57.06
2017-04-19T00:24:43.296Z,57.06
2017-04-19T00:25:23.876Z,56.87
2017-04-19T00:26:04.471Z,56.68
2017-04-19T00:26:45.116Z,56.49
2017-04-19T00:27:25.681Z,56.68
2017-04-19T00:28:06.288Z,56.87
2017-04-19T00:28:46.921Z,56.87
2017-04-19T00:29:27.611Z,57.16
2017-04-19T00:30:08.170Z,56.97
2017-04-19T00:30:48.803Z,56.68
2017-04-19T00:31:29.442Z,56.4
2017-04-19T00:32:10.013Z,56.97
2017-04-19T00:32:50.679Z,56.97
2017-04-19T00:33:31.299Z,56.68
2017-04-19T00:34:11.941Z,56.68
2017-04-19T00:34:52.526Z,56.87
2017-04-19T00:35:33.111Z,56.78
2017-04-19T00:36:13.710Z,56.87
2017-04-19T00:36:54.343Z,56.68
2017-04-19T00:37:34.953Z,56.87
2017-04-19T00:38:15.547Z,57.35
2017-04-19T00:38:56.157Z,57.35
2017-04-19T00:39:36.754Z,57.25
2017-04-19T00:40:17.379Z,57.25
2017-04-19T00:40:58.060Z,57.44
2017-04-19T00:41:38.658Z,57.44
2017-04-19T00:42:19.236Z,57.35
2017-04-19T00:42:59.859Z,57.35
2017-04-19T00:43:40.484Z,57.25
2017-04-19T00:44:21.085Z,57.54
2017-04-19T00:45:01.658Z,57.44
2017-04-19T00:45:42.261Z,57.82
2017-04-19T00:46:22.884Z,58.01
2017-04-19T00:47:03.440Z,57.73
2017-04-19T00:47:44.030Z,57.82
2017-04-19T00:48:24.632Z,57.44
2017-04-19T00:49:05.236Z,57.82
2017-04-19T00:49:45.838Z,58.01
2017-04-19T00:50:26.450Z,58.01
2017-04-19T00:51:07.045Z,58.11
2017-04-19T00:51:47.642Z,57.54
2017-04-19T00:52:28.217Z,57.64
2017-04-19T00:53:08.823Z,57.73
2017-04-19T00:53:49.423Z,58.01
2017-04-19T00:54:30.012Z,57.79
2017-04-19T00:55:10.614Z,57.79
2017-04-19T00:55:51.192Z,58.17
2017-04-19T00:56:31.769Z,57.92
2017-04-19T00:57:12.360Z,57.98
2017-04-19T00:57:52.948Z,57.7
2017-04-19T00:58:33.568Z,57.7
2017-04-19T00:59:14.183Z,57.51
2017-04-19T00:59:54.763Z,57.79
2017-04-19T01:00:35.358Z,57.6
2017-04-19T01:01:15.954Z,57.7
2017-04-19T01:01:56.586Z,57.89
2017-04-19T01:02:37.180Z,57.89
2017-04-19T01:03:17.816Z,57.79
2017-04-19T01:03:58.413Z,58.17
2017-04-19T01:04:39.017Z,58.26
2017-04-19T01:05:19.613Z,58.07
2017-04-19T01:06:00.206Z,58.36
2017-04-19T01:06:40.851Z,57.7
2017-04-19T01:07:21.427Z,58.36
2017-04-19T01:08:02.015Z,57.98
2017-04-19T01:08:42.629Z,58.17
2017-04-19T01:09:23.227Z,58.45
2017-04-19T01:10:03.812Z,58.07
2017-04-19T01:10:44.410Z,58.74
2017-04-19T01:11:24.992Z,58.26
2017-04-19T01:12:05.577Z,58.84
2017-04-19T01:12:46.178Z,58.55
2017-04-19T01:13:26.748Z,59.12
2017-04-19T01:14:07.356Z,58.93
2017-04-19T01:14:47.939Z,58.84
2017-04-19T01:15:28.533Z,58.93
2017-04-19T01:16:09.123Z,58.45
2017-04-19T01:16:49.844Z,58.84
2017-04-19T01:17:30.443Z,58.55
2017-04-19T01:18:11.027Z,58.55
2017-04-19T01:18:51.607Z,59.03
2017-04-19T01:19:32.200Z,58.84
2017-04-19T01:20:12.776Z,58.93
2017-04-19T01:20:53.365Z,59.22
2017-04-19T01:21:34.003Z,59.03
2017-04-19T01:22:14.598Z,59.03
2017-04-19T01:22:55.178Z,59.12
2017-04-19T01:23:35.775Z,59.22
2017-04-19T01:24:16.382Z,59.22
2017-04-19T01:24:56.982Z,58.74
2017-04-19T01:25:37.596Z,58.93
2017-04-19T01:26:18.243Z,59.12
2017-04-19T01:26:58.820Z,59.03
2017-04-19T01:27:39.429Z,59.12
2017-04-19T01:28:20.023Z,58.84
2017-04-19T01:29:00.625Z,59.03
2017-04-19T01:29:41.209Z,59.22
2017-04-19T01:30:21.844Z,58.84
2017-04-19T01:31:02.451Z,59.03
2017-04-19T01:31:43.037Z,58.45
2017-04-19T01:32:23.613Z,59.12
2017-04-19T01:33:04.197Z,58.55
2017-04-19T01:33:44.811Z,58.84
2017-04-19T01:34:25.390Z,59.12
2017-04-19T01:35:06.013Z,58.74
2017-04-19T01:35:46.643Z,59.41
2017-04-19T01:36:27.219Z,59.22
2017-04-19T01:37:08.217Z,59.78
2017-04-19T01:37:48.807Z,59.78
2017-04-19T01:38:29.384Z,59.59
2017-04-19T01:39:10.098Z,59.78
2017-04-19T01:39:50.716Z,59.88
2017-04-19T01:40:31.281Z,59.59
2017-04-19T01:41:11.868Z,59.78
2017-04-19T01:41:52.441Z,59.78
2017-04-19T01:42:33.037Z,59.69
2017-04-19T01:43:13.648Z,59.41
2017-04-19T01:43:54.233Z,59.69
2017-04-19T01:44:34.827Z,59.78
2017-04-19T01:45:15.396Z,59.78
2017-04-19T01:45:56.029Z,59.69
2017-04-19T01:46:36.594Z,59.94
2017-04-19T01:47:17.205Z,59.56
2017-04-19T01:47:57.841Z,59.5
2017-04-19T01:48:38.422Z,59.59
2017-04-19T01:49:19.012Z,59.88
2017-04-19T01:49:59.612Z,59.75
2017-04-19T01:50:40.207Z,60.13
2017-04-19T01:51:20.804Z,59.47
2017-04-19T01:52:01.399Z,60.22
2017-04-19T01:52:41.967Z,59.94
2017-04-19T01:53:22.563Z,59.66
2017-04-19T01:54:03.134Z,59.56
2017-04-19T01:54:43.718Z,59.88
2017-04-19T01:55:24.311Z,59.75
2017-04-19T01:56:04.897Z,59.94
2017-04-19T01:56:45.477Z,60.03
2017-04-19T01:57:26.175Z,60.13
2017-04-19T01:58:06.755Z,60.32
2017-04-19T01:58:47.357Z,60.32
2017-04-19T01:59:27.934Z,60.03
2017-04-19T02:00:08.496Z,60.22
2017-04-19T02:00:49.080Z,59.94
2017-04-19T02:01:29.652Z,60.22
2017-04-19T02:02:10.252Z,60.51
2017-04-19T02:02:50.827Z,60.41
2017-04-19T02:03:31.418Z,60.41
2017-04-19T02:04:12.075Z,60.13
2017-04-19T02:04:52.643Z,60.7
2017-04-19T02:05:33.234Z,60.41
2017-04-19T02:06:13.816Z,60.61
2017-04-19T02:06:54.427Z,60.22
2017-04-19T02:07:35.048Z,60.51
2017-04-19T02:08:15.701Z,60.41
2017-04-19T02:08:56.293Z,60.13
2017-04-19T02:09:36.877Z,60.03
2017-04-19T02:10:17.436Z,60.03
2017-04-19T02:10:58.035Z,59.84
2017-04-19T02:11:38.641Z,59.84
2017-04-19T02:12:19.235Z,60.13
2017-04-19T02:12:59.858Z,59.94
2017-04-19T02:13:40.441Z,60.22
2017-04-19T02:14:21.016Z,59.84
2017-04-19T02:15:01.605Z,59.94
2017-04-19T02:15:42.204Z,59.56
2017-04-19T02:16:22.810Z,59.84
2017-04-19T02:17:03.385Z,60.03
2017-04-19T02:17:43.962Z,59.94
2017-04-19T02:18:24.562Z,60.13
2017-04-19T02:19:05.161Z,60.22
2017-04-19T02:19:45.758Z,60.51
2017-04-19T02:20:26.352Z,60.41
2017-04-19T02:21:06.943Z,60.41
2017-04-19T02:21:47.559Z,60.41
2017-04-19T02:22:28.165Z,60.7
2017-04-19T02:23:08.762Z,60.51
2017-04-19T02:23:49.351Z,60.51
2017-04-19T02:24:29.922Z,60.7
2017-04-19T02:25:10.506Z,60.7
2017-04-19T02:25:51.084Z,60.7
2017-04-19T02:26:31.682Z,60.41
2017-04-19T02:27:12.276Z,60.61
2017-04-19T02:27:52.882Z,60.61
2017-04-19T02:28:33.468Z,60.61
2017-04-19T02:29:14.045Z,60.61
2017-04-19T02:29:54.645Z,60.7
2017-04-19T02:30:35.234Z,60.61
2017-04-19T02:31:15.826Z,60.51
2017-04-19T02:31:56.469Z,60.32
2017-04-19T02:32:37.084Z,60.61
2017-04-19T02:33:17.701Z,60.41
2017-04-19T02:33:58.292Z,60.61
2017-04-19T02:34:38.867Z,60.41
2017-04-19T02:35:19.458Z,61.08
2017-04-19T02:36:00.048Z,60.51
2017-04-19T02:36:40.662Z,61.08
2017-04-19T02:37:21.244Z,61.36
2017-04-19T02:38:01.813Z,61.18
2017-04-19T02:38:42.414Z,61.08
2017-04-19T02:39:23.023Z,60.99
2017-04-19T02:40:03.644Z,60.99
2017-04-19T02:40:44.248Z,61.46
2017-04-19T02:41:24.864Z,61.46
2017-04-19T02:42:05.452Z,61.18
2017-04-19T02:42:46.027Z,61.18
2017-04-19T02:43:26.617Z,61.27
2017-04-19T02:44:07.221Z,61.18
2017-04-19T02:44:47.781Z,60.41
2017-04-19T02:45:28.367Z,60.89
2017-04-19T02:46:08.946Z,61.18
2017-04-19T02:46:49.530Z,60.99
2017-04-19T02:47:30.109Z,61.18
2017-04-19T02:48:10.697Z,61.36
2017-04-19T02:48:51.285Z,61.46
2017-04-19T02:49:31.924Z,61.46
2017-04-19T02:50:12.512Z,61.36
2017-04-19T02:50:53.091Z,61.36
2017-04-19T02:51:33.688Z,61.36
2017-04-19T02:52:14.279Z,61.46
2017-04-19T02:52:54.933Z,61.27
2017-04-19T02:53:35.517Z,61.36
2017-04-19T02:54:16.128Z,61.46
2017-04-19T02:54:56.740Z,61.36
2017-04-19T02:55:37.458Z,61.55
2017-04-19T02:56:18.240Z,61.46
2017-04-19T02:56:58.899Z,61.65
2017-04-19T02:57:39.504Z,61.46
2017-04-19T02:58:20.080Z,61.74
2017-04-19T02:59:00.656Z,61.74
2017-04-19T02:59:41.282Z,61.36
2017-04-19T03:00:21.915Z,61.65
2017-04-19T03:01:02.490Z,61.18
2017-04-19T03:01:43.069Z,61.55
2017-04-19T03:02:23.650Z,61.55
2017-04-19T03:03:04.250Z,61.27
2017-04-19T03:03:44.848Z,61.83
2017-04-19T03:04:25.445Z,61.65
2017-04-19T03:05:06.053Z,61.55
2017-04-19T03:05:46.626Z,61.65
2017-04-19T03:06:27.245Z,61.36
2017-04-19T03:07:07.846Z,61.46
2017-04-19T03:07:48.437Z,61.36
2017-04-19T03:08:29.030Z,61.65
2017-04-19T03:09:09.613Z,61.08
2017-04-19T03:09:50.330Z,60.99
2017-04-19T03:10:30.897Z,60.89
2017-04-19T03:11:11.513Z,61.46
2017-04-19T03:11:52.102Z,61.74
2017-04-19T03:12:32.711Z,61.55
2017-04-19T03:13:13.362Z,61.46
2017-04-19T03:13:53.924Z,61.36
2017-04-19T03:14:34.567Z,61.83
2017-04-19T03:15:15.166Z,61.83
2017-04-19T03:15:55.849Z,61.55
2017-04-19T03:16:36.416Z,61.65
2017-04-19T03:17:16.998Z,61.83
2017-04-19T03:17:57.759Z,61.55
2017-04-19T03:18:38.384Z,61.65
2017-04-19T03:19:18.971Z,61.74
2017-04-19T03:19:59.592Z,61.65
2017-04-19T03:20:40.210Z,61.65
2017-04-19T03:21:20.830Z,61.36
2017-04-19T03:22:01.434Z,61.36
2017-04-19T03:22:42.012Z,61.65
2017-04-19T03:23:22.595Z,61.65
2017-04-19T03:24:03.192Z,61.65
2017-04-19T03:24:43.797Z,61.65
2017-04-19T03:25:24.379Z,61.65
2017-04-19T03:26:04.960Z,61.83
2017-04-19T03:26:45.519Z,61.65
2017-04-19T03:27:26.100Z,62.02
2017-04-19T03:28:06.693Z,61.65
2017-04-19T03:28:47.293Z,61.65
2017-04-19T03:29:27.879Z,61.74
2017-04-19T03:30:08.462Z,61.83
2017-04-19T03:30:49.056Z,61.93
2017-04-19T03:31:29.651Z,61.65
2017-04-19T03:32:10.237Z,61.83
2017-04-19T03:32:50.985Z,61.74
2017-04-19T03:33:31.584Z,61.74
2017-04-19T03:34:12.210Z,61.46
2017-04-19T03:34:52.808Z,61.55
2017-04-19T03:35:33.394Z,61.55
2017-04-19T03:36:13.979Z,61.65
2017-04-19T03:36:54.667Z,61.65
2017-04-19T03:37:35.256Z,61.55
2017-04-19T03:38:15.868Z,61.83
2017-04-19T03:38:56.489Z,61.83
2017-04-19T03:39:37.113Z,61.65
2017-04-19T03:40:17.707Z,61.74
2017-04-19T03:40:58.293Z,61.74
2017-04-19T03:41:38.896Z,61.55
2017-04-19T03:42:19.478Z,61.65
2017-04-19T03:43:00.102Z,61.65
2017-04-19T03:43:40.731Z,61.65
2017-04-19T03:44:21.331Z,61.55
2017-04-19T03:45:01.946Z,61.83
2017-04-19T03:45:42.570Z,61.74
2017-04-19T03:46:23.147Z,61.55
2017-04-19T03:47:03.716Z,61.55
2017-04-19T03:47:44.322Z,61.74
2017-04-19T03:48:24.926Z,61.65
2017-04-19T03:49:05.542Z,61.46
2017-04-19T03:49:46.116Z,61.55
2017-04-19T03:50:26.707Z,61.93
2017-04-19T03:51:07.303Z,61.93
2017-04-19T03:51:47.902Z,61.74
2017-04-19T03:52:28.501Z,61.65
2017-04-19T03:53:09.097Z,62.02
2017-04-19T03:53:49.723Z,61.65
2017-04-19T03:54:30.344Z,61.83
2017-04-19T03:55:10.937Z,61.55
2017-04-19T03:55:51.513Z,61.55
2017-04-19T03:56:32.108Z,61.46
2017-04-19T03:57:12.721Z,61.65
2017-04-19T03:57:53.354Z,61.74
2017-04-19T03:58:33.951Z,61.55
2017-04-19T03:59:14.544Z,61.55
2017-04-19T04:00:02.128Z,61.46
2017-04-19T04:00:42.738Z,61.65
2017-04-19T04:01:23.329Z,61.65
2017-04-19T04:02:03.971Z,62.02
2017-04-19T04:02:44.576Z,61.83
2017-04-19T04:03:25.160Z,61.93
2017-04-19T04:04:05.751Z,62.02
2017-04-19T04:04:46.351Z,61.55
2017-04-19T04:06:59.525Z,62.09
2017-04-19T04:07:40.115Z,61.99
2017-04-19T04:08:20.719Z,61.71
2017-04-19T04:09:01.306Z,62.21
2017-04-19T04:09:41.918Z,61.9
2017-04-19T04:10:22.529Z,62.02
2017-04-19T04:11:03.128Z,61.83
2017-04-19T04:11:43.720Z,61.65
2017-04-19T04:12:24.335Z,61.83
2017-04-19T04:13:04.905Z,61.74
2017-04-19T04:13:45.477Z,61.55
2017-04-19T04:14:26.069Z,61.83
2017-04-19T04:15:06.637Z,61.83
2017-04-19T04:15:47.283Z,61.83
2017-04-19T04:16:27.879Z,61.65
2017-04-19T04:17:08.492Z,61.65
2017-04-19T04:17:49.097Z,61.65
2017-04-19T04:18:29.682Z,61.74
2017-04-19T04:19:10.307Z,61.65
2017-04-19T04:19:50.879Z,61.93
2017-04-19T04:20:31.457Z,61.83
2017-04-19T04:21:12.045Z,61.83
2017-04-19T04:21:52.626Z,61.74
2017-04-19T04:22:33.261Z,61.55
2017-04-19T04:23:13.872Z,61.65
2017-04-19T04:23:54.465Z,61.65
2017-04-19T04:24:35.094Z,61.93
2017-04-19T04:25:15.696Z,61.83
2017-04-19T04:25:56.315Z,61.74
2017-04-19T04:26:36.908Z,61.74
2017-04-19T04:27:17.504Z,61.65
2017-04-19T04:27:58.133Z,61.83
2017-04-19T04:28:38.768Z,61.83
2017-04-19T04:29:19.355Z,61.55
2017-04-19T04:29:59.981Z,61.65
2017-04-19T04:30:40.601Z,61.83
2017-04-19T04:31:21.166Z,61.65
2017-04-19T04:32:01.781Z,61.74
2017-04-19T04:32:42.371Z,61.55
2017-04-19T04:33:23.032Z,61.65
2017-04-19T04:34:03.648Z,62.02
2017-04-19T04:34:44.201Z,61.83
2017-04-19T04:35:24.817Z,61.83
2017-04-19T04:36:05.398Z,62.02
2017-04-19T04:36:45.980Z,61.74
2017-04-19T04:37:26.572Z,61.65
2017-04-19T04:38:07.118Z,61.65
2017-04-19T04:38:47.690Z,61.55
2017-04-19T04:39:28.264Z,61.65
2017-04-19T04:40:08.844Z,61.65
2017-04-19T04:40:49.433Z,61.65
2017-04-19T04:41:30.037Z,61.93
2017-04-19T04:42:10.621Z,61.65
2017-04-19T04:42:51.279Z,61.46
2017-04-19T04:43:31.823Z,61.65
2017-04-19T04:44:12.420Z,61.27
2017-04-19T04:44:53.023Z,61.93
2017-04-19T04:45:33.579Z,61.55
2017-04-19T04:46:14.633Z,61.46
2017-04-19T04:46:55.226Z,61.65
2017-04-19T04:47:35.802Z,61.83
2017-04-19T04:48:16.492Z,61.55
2017-04-19T04:48:57.181Z,61.74
2017-04-19T04:49:37.945Z,61.83
2017-04-19T04:50:18.820Z,61.74
2017-04-19T04:50:59.403Z,61.46
2017-04-19T04:51:39.969Z,61.55
2017-04-19T04:52:20.572Z,61.83
2017-04-19T04:53:01.179Z,61.83
2017-04-19T04:53:41.757Z,61.36
2017-04-19T04:54:22.371Z,60.99
2017-04-19T04:55:02.988Z,61.18
2017-04-19T04:55:43.575Z,60.99
2017-04-19T04:56:24.195Z,61.36
2017-04-19T04:57:04.782Z,61.36
2017-04-19T04:57:45.370Z,61.65
2017-04-19T04:58:25.974Z,61.74
2017-04-19T04:59:06.576Z,61.55
2017-04-19T04:59:47.172Z,61.74
2017-04-19T05:00:27.776Z,61.27
2017-04-19T05:01:08.397Z,61.18
2017-04-19T05:01:49.022Z,61.46
2017-04-19T05:02:29.607Z,61.18
2017-04-19T05:03:10.405Z,61.27
2017-04-19T05:03:51.079Z,61.36
2017-04-19T05:04:31.644Z,61.36
2017-04-19T05:05:12.219Z,61.36
2017-04-19T05:05:52.780Z,61.08
2017-04-19T05:06:33.446Z,61.27
2017-04-19T05:07:14.030Z,60.99
2017-04-19T05:07:54.621Z,60.99
2017-04-19T05:08:35.207Z,60.7
2017-04-19T05:09:15.791Z,60.41
2017-04-19T05:09:56.365Z,60.03
2017-04-19T05:10:36.984Z,59.94
2017-04-19T05:11:17.593Z,59.66
2017-04-19T05:11:58.181Z,59.94
2017-04-19T05:12:38.797Z,59.94
2017-04-19T05:13:19.389Z,60.13
2017-04-19T05:13:59.996Z,59.84
2017-04-19T05:14:40.611Z,59.94
2017-04-19T05:15:21.206Z,59.75
2017-04-19T05:16:01.868Z,60.13
2017-04-19T05:16:42.469Z,59.84
2017-04-19T05:17:23.197Z,60.03
2017-04-19T05:18:03.796Z,59.94
2017-04-19T05:18:44.427Z,59.66
2017-04-19T05:19:25.003Z,59.47
2017-04-19T05:20:05.577Z,60.03
2017-04-19T05:20:46.229Z,60.8
2017-04-19T05:21:26.825Z,60.41
2017-04-19T05:22:07.436Z,60.61
2017-04-19T05:22:48.004Z,60.51
2017-04-19T05:23:28.599Z,60.51
2017-04-19T05:24:09.390Z,60.41
2017-04-19T05:24:50.134Z,60.8
2017-04-19T05:25:30.720Z,60.51
2017-04-19T05:26:11.308Z,60.32
2017-04-19T05:26:51.918Z,59.94
2017-04-19T05:27:32.507Z,60.13
2017-04-19T05:28:13.105Z,60.03
2017-04-19T05:28:53.709Z,59.75
2017-04-19T05:29:34.343Z,59.56
2017-04-19T05:30:14.943Z,59.84
2017-04-19T05:30:55.527Z,59.84
2017-04-19T05:31:36.114Z,59.84
2017-04-19T05:32:16.708Z,59.97
2017-04-19T05:32:57.374Z,60.13
2017-04-19T05:33:37.909Z,59.78
2017-04-19T05:34:18.479Z,59.59
2017-04-19T05:34:59.071Z,59.59
2017-04-19T05:35:39.711Z,59.59
2017-04-19T05:36:20.314Z,59.41
2017-04-19T05:37:00.882Z,59.22
2017-04-19T05:37:41.454Z,59.22
2017-04-19T05:38:22.051Z,59.31
2017-04-19T05:39:02.641Z,59.59
2017-04-19T05:39:43.254Z,59.88
2017-04-19T05:40:23.880Z,59.78
2017-04-19T05:41:04.469Z,59.03
2017-04-19T05:41:45.058Z,59.41
2017-04-19T05:42:25.642Z,59.03
2017-04-19T05:43:06.238Z,58.93
2017-04-19T05:43:46.817Z,58.74
2017-04-19T05:44:27.467Z,59.03
2017-04-19T05:45:08.096Z,59.41
2017-04-19T05:45:48.732Z,59.03
2017-04-19T05:46:29.345Z,59.12
2017-04-19T05:47:09.978Z,58.74
2017-04-19T05:47:50.582Z,58.93
2017-04-19T05:48:31.153Z,58.55
2017-04-19T05:49:11.729Z,58.17
2017-04-19T05:49:52.324Z,58.26
2017-04-19T05:50:32.924Z,58.45
2017-04-19T05:51:13.490Z,58.45
2017-04-19T05:51:54.078Z,58.26
2017-04-19T05:52:34.690Z,58.45
2017-04-19T05:53:15.260Z,58.84
2017-04-19T05:53:55.839Z,58.55
2017-04-19T05:54:36.427Z,58.55
2017-04-19T05:55:17.057Z,58.55
2017-04-19T05:55:57.644Z,58.84
2017-04-19T05:56:38.286Z,58.74
2017-04-19T05:57:18.940Z,57.98
2017-04-19T05:57:59.567Z,58.17
2017-04-19T05:58:40.240Z,58.17
2017-04-19T05:59:20.851Z,58.45
2017-04-19T06:00:01.460Z,58.84
2017-04-19T06:00:42.034Z,58.55
2017-04-19T06:01:22.668Z,58.45
2017-04-19T06:02:03.305Z,58.45
2017-04-19T06:02:43.901Z,58.45
2017-04-19T06:03:24.531Z,58.93
2017-04-19T06:04:05.134Z,58.26
2017-04-19T06:04:45.709Z,57.7
2017-04-19T06:05:26.339Z,57.89
2017-04-19T06:06:07.015Z,58.17
2017-04-19T06:06:47.618Z,58.36
2017-04-19T06:07:28.604Z,58.17
2017-04-19T06:08:09.247Z,58.17
2017-04-19T06:08:49.873Z,58.36
2017-04-19T06:09:30.703Z,57.89
2017-04-19T06:10:11.158Z,57.7
2017-04-19T06:10:51.790Z,58.07
2017-04-19T06:11:32.413Z,57.79
2017-04-19T06:12:13.042Z,58.17
2017-04-19T06:12:53.686Z,58.07
2017-04-19T06:13:34.211Z,57.79
2017-04-19T06:14:14.916Z,57.89
2017-04-19T06:14:55.521Z,57.7
2017-04-19T06:15:36.137Z,57.79
2017-04-19T06:16:16.741Z,57.82
2017-04-19T06:16:57.334Z,57.7
2017-04-19T06:17:37.962Z,57.54
2017-04-19T06:18:18.590Z,57.16
2017-04-19T06:18:59.189Z,57.25
2017-04-19T06:19:39.801Z,56.68
2017-04-19T06:20:20.384Z,57.06
2017-04-19T06:21:00.953Z,56.59
2017-04-19T06:21:41.612Z,57.64
2017-04-19T06:22:22.200Z,57.25
2017-04-19T06:23:02.824Z,56.87
2017-04-19T06:23:43.434Z,56.68
2017-04-19T06:24:24.052Z,56.59
2017-04-19T06:25:04.624Z,55.96
2017-04-19T06:25:45.286Z,55.57
2017-04-19T06:26:25.911Z,55.19
2017-04-19T06:27:06.513Z,54.63
2017-04-19T06:27:47.158Z,54.44
2017-04-19T06:28:27.763Z,54.18
2017-04-19T06:29:08.350Z,54.18
2017-04-19T06:29:48.926Z,53.61
2017-04-19T06:30:29.569Z,52.95
2017-04-19T06:31:10.143Z,52
2017-04-19T06:31:50.771Z,50.98
2017-04-19T06:32:31.370Z,50.98
2017-04-19T06:33:11.964Z,50.7
2017-04-19T06:33:52.557Z,50.41
2017-04-19T06:34:33.146Z,50.51
2017-04-19T06:35:13.729Z,49.84
2017-04-19T06:35:54.369Z,49.46
2017-04-19T06:36:35.001Z,48.91
2017-04-19T06:37:15.648Z,48.82
2017-04-19T06:37:56.291Z,48.25
2017-04-19T06:38:36.870Z,47.87
2017-04-19T06:39:17.464Z,47.49
2017-04-19T06:39:58.181Z,49.01
2017-04-19T06:40:38.832Z,52.43
2017-04-19T06:41:19.450Z,52.64
2017-04-19T06:42:00.206Z,53.41
2017-04-19T06:42:40.873Z,53.22
2017-04-19T06:43:21.551Z,52.67
2017-04-19T06:44:02.198Z,51.06
2017-04-19T06:44:42.792Z,47.92
2017-04-19T06:45:23.430Z,46.68
2017-04-19T06:46:04.109Z,46.49
2017-04-19T06:46:44.662Z,45.95
2017-04-19T06:47:25.284Z,44.52
2017-04-19T06:48:05.945Z,45.28
2017-04-19T06:48:46.538Z,44.52
2017-04-19T06:49:27.242Z,43.85
2017-04-19T06:50:07.844Z,42.71
2017-04-19T06:50:48.441Z,42.71
2017-04-19T06:51:29.125Z,42.9
2017-04-19T06:52:09.784Z,42.71
2017-04-19T06:52:50.421Z,42.61
2017-04-19T06:53:34.780Z,42.14
2017-04-19T06:54:28.922Z,41.95
2017-04-19T06:55:09.543Z,41.85
2017-04-19T06:55:50.142Z,41.95
2017-04-19T06:56:30.748Z,41.95
2017-04-19T06:57:11.360Z,42.14
2017-04-19T06:57:52.257Z,42.61
2017-04-19T06:58:32.892Z,42.33
2017-04-19T06:59:13.517Z,41.76
2017-04-19T06:59:54.181Z,42.04
2017-04-19T07:00:34.785Z,42.14
2017-04-19T07:01:15.406Z,42.61
2017-04-19T07:01:56.359Z,42.8
2017-04-19T07:02:37.112Z,42.9
2017-04-19T07:03:17.682Z,42.9
2017-04-19T07:03:58.300Z,42.8
2017-04-19T07:04:38.907Z,42.8
2017-04-19T07:05:19.516Z,42.24
2017-04-19T07:06:00.204Z,42.14
2017-04-19T07:06:40.829Z,42.04
2017-04-19T07:07:21.468Z,42.14
2017-04-19T07:08:02.405Z,41.85
2017-04-19T07:08:42.967Z,41.95
2017-04-19T07:09:23.629Z,41.66
2017-04-19T07:10:04.275Z,41.57
2017-04-19T07:10:44.877Z,41.38
2017-04-19T07:11:25.522Z,41.85
2017-04-19T07:12:06.116Z,41.95
2017-04-19T07:12:46.748Z,41.47
2017-04-19T07:13:27.447Z,40.81
2017-04-19T07:14:08.080Z,40.92
2017-04-19T07:14:48.924Z,40.33
2017-04-19T07:15:29.627Z,40.81
2017-04-19T07:16:10.263Z,41.09
2017-04-19T07:16:51.055Z,41.66
2017-04-19T07:17:31.643Z,41.95
2017-04-19T07:18:12.242Z,42.04
2017-04-19T07:18:52.936Z,41.59
2017-04-19T07:19:33.489Z,41.4
2017-04-19T07:20:14.102Z,41.49
2017-04-19T07:20:54.782Z,40.64
2017-04-19T07:21:35.375Z,40.92
2017-04-19T07:22:16.053Z,41.02
2017-04-19T07:22:56.740Z,40.54
2017-04-19T07:23:37.347Z,40.9
2017-04-19T07:24:18.021Z,40.62
2017-04-19T07:24:58.648Z,40.88
2017-04-19T07:25:39.285Z,41.83
2017-04-19T07:26:19.903Z,41.64
2017-04-19T07:27:00.544Z,42.21
2017-04-19T07:27:41.161Z,42.88
2017-04-19T07:28:21.755Z,42.86
2017-04-19T07:29:02.413Z,42.67
2017-04-19T07:29:43.598Z,42.76
2017-04-19T07:30:26.252Z,43.05
2017-04-19T07:31:07.399Z,42.76
2017-04-19T07:31:48.018Z,43.24
2017-04-19T07:32:28.625Z,43.69
2017-04-19T07:33:09.232Z,44.07
2017-04-19T07:33:49.892Z,44.54
2017-04-19T07:34:30.540Z,44.73
2017-04-19T07:35:11.237Z,44.93
2017-04-19T07:35:51.854Z,45.21
2017-04-19T07:36:32.447Z,45.02
2017-04-19T07:37:13.060Z,46.16
2017-04-19T07:37:53.663Z,45.97
2017-04-19T07:38:34.282Z,46.16
2017-04-19T07:39:14.873Z,45.97
2017-04-19T07:39:55.498Z,46.16
2017-04-19T07:40:36.113Z,46.14
2017-04-19T07:41:16.764Z,46.33
2017-04-19T07:41:57.411Z,46.45
2017-04-19T07:42:38.013Z,46.25
2017-04-19T07:43:18.623Z,45.12
2017-04-19T07:43:59.391Z,44.83
2017-04-19T07:44:40.044Z,44.07
2017-04-19T07:45:20.673Z,43.69
2017-04-19T07:46:01.315Z,43.6
2017-04-19T07:46:41.932Z,43.6
2017-04-19T07:47:22.565Z,42.86
2017-04-19T07:48:03.179Z,42.57
2017-04-19T07:48:43.794Z,42.19
2017-04-19T07:49:24.427Z,41.72
2017-04-19T07:50:05.126Z,41.07
2017-04-19T07:50:45.890Z,40.88
2017-04-19T07:51:26.492Z,40.59
2017-04-19T07:52:07.115Z,40.22
2017-04-19T07:52:47.733Z,40.03
2017-04-19T07:53:28.377Z,39.74
2017-04-19T07:54:09.000Z,39.67
2017-04-19T07:54:49.609Z,39.57
2017-04-19T07:55:30.232Z,39.55
2017-04-19T07:56:10.884Z,39.36
2017-04-19T07:56:51.451Z,39.93
2017-04-19T07:57:32.097Z,39.67
2017-04-19T07:58:12.748Z,39.76
2017-04-19T07:58:53.326Z,39.38
2017-04-19T07:59:33.959Z,38.9
2017-04-19T08:00:14.567Z,38.53
2017-04-19T08:00:55.301Z,38.14
2017-04-19T08:01:35.922Z,38.34
2017-04-19T08:02:16.535Z,38.34
2017-04-19T08:02:57.200Z,38.34
2017-04-19T08:03:37.795Z,38.62
2017-04-19T08:04:18.433Z,38.71
2017-04-19T08:04:59.040Z,38.71
2017-04-19T08:05:39.654Z,38.43
2017-04-19T08:06:20.379Z,37.86
2017-04-19T08:07:00.948Z,38.14
2017-04-19T08:07:41.637Z,37.95
2017-04-19T08:08:22.248Z,37.95
2017-04-19T08:09:02.860Z,37.48
2017-04-19T08:09:43.504Z,37.57
2017-04-19T08:10:24.114Z,38.05
2017-04-19T08:11:04.794Z,38.43
2017-04-19T08:11:45.471Z,38.73
2017-04-19T08:12:26.115Z,38.17
2017-04-19T08:13:06.725Z,37.49
2017-04-19T08:13:47.368Z,37.02
2017-04-19T08:14:27.982Z,37.02
2017-04-19T08:15:08.600Z,37.3
2017-04-19T08:15:49.235Z,37.78
2017-04-19T08:16:29.867Z,37.48
2017-04-19T08:17:10.551Z,37.19
2017-04-19T08:17:51.156Z,37.12
2017-04-19T08:18:31.809Z,38.05
2017-04-19T08:19:12.450Z,38.17
2017-04-19T08:19:53.140Z,38.05
2017-04-19T08:20:33.773Z,38.35
2017-04-19T08:21:14.406Z,38.17
2017-04-19T08:21:55.113Z,37.97
2017-04-19T08:22:35.731Z,38.07
2017-04-19T08:23:16.682Z,38.26
2017-04-19T08:23:57.494Z,37.69
2017-04-19T08:24:38.125Z,38.07
2017-04-19T08:25:18.835Z,37.13
2017-04-19T08:25:59.520Z,36.47
2017-04-19T08:26:40.340Z,36.08
2017-04-19T08:27:21.034Z,35.61
2017-04-19T08:28:01.843Z,35.23
2017-04-19T08:30:15.113Z,33.7
2017-04-19T08:30:55.711Z,33.42
2017-04-19T08:31:36.405Z,32.37
2017-04-19T08:32:17.799Z,31.21
2017-04-19T08:32:58.905Z,31.21
2017-04-19T08:33:40.657Z,31.88
2017-04-19T08:34:22.265Z,32.35
2017-04-19T08:35:03.063Z,32.35
2017-04-19T08:35:43.676Z,33.22
2017-04-19T08:36:24.280Z,33.31
2017-04-19T08:37:04.926Z,33.88
2017-04-19T08:37:45.561Z,34.24
2017-04-19T08:38:26.149Z,34.53
2017-04-19T08:39:06.769Z,34.72
2017-04-19T08:39:47.457Z,35.1
2017-04-19T08:40:30.421Z,35
2017-04-19T08:41:11.581Z,35.67
2017-04-19T08:41:52.178Z,35.67
2017-04-19T08:42:32.791Z,35.67
2017-04-19T08:43:13.424Z,36.05
2017-04-19T08:43:54.134Z,36.7
2017-04-19T08:44:34.731Z,37.55
2017-04-19T08:45:15.323Z,38.31
2017-04-19T08:45:55.928Z,38.51
2017-04-19T08:46:36.556Z,38.62
2017-04-19T08:47:17.348Z,38.9
2017-04-19T08:47:57.989Z,38.9